createdAt,value
2019-04-27T00:00:53.462Z,1004.48
2019-04-27T00:01:50.276Z,1004.46
2019-04-27T00:02:48.954Z,1004.5
2019-04-27T00:03:47.614Z,1004.45
2019-04-27T00:04:48.568Z,1004.51
2019-04-27T00:05:44.818Z,1004.46
2019-04-27T00:06:46.356Z,1004.44
2019-04-27T00:07:43.742Z,1004.39
2019-04-27T00:08:40.533Z,1004.42
2019-04-27T00:09:41.595Z,1004.41
2019-04-27T00:10:37.897Z,1004.41
2019-04-27T00:11:37.331Z,1004.39
2019-04-27T00:12:35.372Z,1004.38
2019-04-27T00:13:34.709Z,1004.4
2019-04-27T00:14:32.964Z,1004.41
2019-04-27T00:15:32.962Z,1004.38
2019-04-27T00:16:29.961Z,1004.38
2019-04-27T00:17:43.367Z,1004.43
2019-04-27T00:18:27.348Z,1004.38
2019-04-27T00:19:27.265Z,1004.37
2019-04-27T00:20:24.490Z,1004.38
2019-04-27T00:21:23.671Z,1004.4
2019-04-27T00:22:23.058Z,1004.35
2019-04-27T00:23:20.229Z,1004.35
2019-04-27T00:24:19.082Z,1004.34
2019-04-27T00:25:17.770Z,1004.36
2019-04-27T00:26:16.446Z,1004.34
2019-04-27T00:27:15.102Z,1004.35
2019-04-27T00:28:13.720Z,1004.33
2019-04-27T00:29:13.672Z,1004.33
2019-04-27T00:30:10.836Z,1004.31
2019-04-27T00:31:09.581Z,1004.34
2019-04-27T00:32:08.125Z,1004.33
2019-04-27T00:33:06.687Z,1004.37
2019-04-27T00:34:05.317Z,1004.31
2019-04-27T00:35:03.971Z,1004.35
2019-04-27T00:36:03.013Z,1004.3
2019-04-27T00:37:01.109Z,1004.3
2019-04-27T00:37:59.688Z,1004.29
2019-04-27T00:38:58.259Z,1004.3
2019-04-27T00:39:56.875Z,1004.27
2019-04-27T00:40:55.437Z,1004.33
2019-04-27T00:41:53.992Z,1004.31
2019-04-27T00:42:54.132Z,1004.26
2019-04-27T00:43:51.200Z,1004.33
2019-04-27T00:44:49.786Z,1004.28
2019-04-27T00:45:48.345Z,1004.24
2019-04-27T00:46:46.999Z,1004.24
2019-04-27T00:47:56.142Z,1004.24
2019-04-27T00:48:44.262Z,1004.22
2019-04-27T00:49:44.315Z,1004.21
2019-04-27T00:50:41.582Z,1004.22
2019-04-27T00:51:40.114Z,1004.18
2019-04-27T00:52:38.657Z,1004.18
2019-04-27T00:53:37.219Z,1004.16
2019-04-27T00:54:35.786Z,1004.16
2019-04-27T00:55:34.390Z,1004.2
2019-04-27T00:56:33.819Z,1004.16
2019-04-27T00:57:33.168Z,1004.16
2019-04-27T00:58:30.386Z,1004.2
2019-04-27T01:01:14.950Z,1004.25
2019-04-27T01:02:13.428Z,1004.21
2019-04-27T01:03:10.588Z,1004.18
2019-04-27T01:04:09.126Z,1004.13
2019-04-27T01:05:07.723Z,1004.16
2019-04-27T01:06:06.456Z,1004.14
2019-04-27T01:07:05.146Z,1004.16
2019-04-27T01:08:03.963Z,1004.22
2019-04-27T01:09:03.490Z,1004.17
2019-04-27T01:10:02.955Z,1004.13
2019-04-27T01:10:59.767Z,1004.15
2019-04-27T01:11:58.315Z,1004.15
2019-04-27T01:12:56.879Z,1004.2
2019-04-27T01:13:55.430Z,1004.11
2019-04-27T01:14:54.081Z,1004.15
2019-04-27T01:15:54.113Z,1004.11
2019-04-27T01:16:51.585Z,1004.11
2019-04-27T01:17:50.006Z,1004.15
2019-04-27T01:18:48.930Z,1004.1
2019-04-27T01:19:47.089Z,1004.12
2019-04-27T01:20:45.684Z,1004.06
2019-04-27T01:21:44.237Z,1004.06
2019-04-27T01:22:42.812Z,1004.08
2019-04-27T01:23:41.440Z,1004.1
2019-04-27T01:24:40.025Z,1004.07
2019-04-27T01:25:38.850Z,1004.06
2019-04-27T01:27:35.930Z,1004.03
2019-04-27T01:28:34.495Z,1004.01
2019-04-27T01:29:33.373Z,1003.99
2019-04-27T01:30:31.894Z,1004.02
2019-04-27T01:31:30.539Z,1004.01
2019-04-27T01:32:29.289Z,1004.02
2019-04-27T01:33:28.267Z,1004.03
2019-04-27T01:34:26.242Z,1004
2019-04-27T01:35:24.778Z,1003.96
2019-04-27T01:36:23.361Z,1003.94
2019-04-27T01:37:21.877Z,1003.94
2019-04-27T01:38:20.422Z,1003.93
2019-04-27T01:39:19.031Z,1003.98
2019-04-27T01:40:19.179Z,1004.02
2019-04-27T01:41:16.219Z,1003.97
2019-04-27T01:42:14.762Z,1003.92
2019-04-27T01:43:13.523Z,1003.91
2019-04-27T01:44:12.076Z,1003.93
2019-04-27T01:45:10.730Z,1003.89
2019-04-27T01:46:09.302Z,1003.94
2019-04-27T01:47:08.293Z,1003.9
2019-04-27T01:48:06.384Z,1003.92
2019-04-27T01:49:04.910Z,1003.9
2019-04-27T01:50:03.477Z,1003.91
2019-04-27T01:51:02.038Z,1003.93
2019-04-27T01:52:00.913Z,1003.9
2019-04-27T01:52:59.729Z,1003.92
2019-04-27T01:53:59.344Z,1003.92
2019-04-27T01:54:56.802Z,1003.92
2019-04-27T01:55:55.386Z,1003.96
2019-04-27T01:56:53.906Z,1003.92
2019-04-27T01:57:52.435Z,1003.85
2019-04-27T01:58:51.024Z,1003.92
2019-04-27T01:59:49.572Z,1003.84
2019-04-27T02:00:49.380Z,1003.84
2019-04-27T02:01:46.705Z,1003.8
2019-04-27T02:02:45.534Z,1003.85
2019-04-27T02:03:44.088Z,1003.86
2019-04-27T02:04:42.647Z,1003.76
2019-04-27T02:05:41.531Z,1003.78
2019-04-27T02:06:40.161Z,1003.89
2019-04-27T02:07:39.015Z,1003.76
2019-04-27T02:08:37.200Z,1003.83
2019-04-27T02:09:35.712Z,1003.79
2019-04-27T02:10:34.282Z,1003.77
2019-04-27T02:11:32.864Z,1003.82
2019-04-27T02:14:13.095Z,1003.78
2019-04-27T02:15:11.734Z,1003.82
2019-04-27T02:16:10.327Z,1003.73
2019-04-27T02:17:09.682Z,1003.76
2019-04-27T02:18:09.266Z,1003.79
2019-04-27T02:19:06.085Z,1003.77
2019-04-27T02:20:04.663Z,1003.81
2019-04-27T02:21:03.249Z,1003.78
2019-04-27T02:22:01.808Z,1003.86
2019-04-27T02:23:00.373Z,1003.82
2019-04-27T02:23:59.767Z,1003.81
2019-04-27T02:24:59.057Z,1003.81
2019-04-27T02:25:56.157Z,1003.76
2019-04-27T02:26:54.793Z,1003.82
2019-04-27T02:27:53.424Z,1003.8
2019-04-27T02:28:52.001Z,1003.81
2019-04-27T02:29:50.556Z,1003.82
2019-04-27T02:30:49.819Z,1003.84
2019-04-27T02:31:50.029Z,1003.85
2019-04-27T02:32:46.483Z,1003.82
2019-04-27T02:33:45.048Z,1003.84
2019-04-27T02:34:43.576Z,1003.89
2019-04-27T02:35:42.341Z,1003.85
2019-04-27T02:36:40.686Z,1003.87
2019-04-27T02:37:40.253Z,1003.84
2019-04-27T02:38:40.273Z,1003.8
2019-04-27T02:39:36.570Z,1003.83
2019-04-27T02:40:35.270Z,1003.77
2019-04-27T02:41:33.890Z,1003.8
2019-04-27T02:42:32.441Z,1003.78
2019-04-27T02:43:31.180Z,1003.77
2019-04-27T02:44:30.203Z,1003.71
2019-04-27T02:45:30.228Z,1003.74
2019-04-27T02:46:29.360Z,1003.81
2019-04-27T02:47:25.671Z,1003.77
2019-04-27T02:48:24.215Z,1003.75
2019-04-27T02:49:22.755Z,1003.75
2019-04-27T02:50:21.580Z,1003.75
2019-04-27T02:51:20.342Z,1003.8
2019-04-27T02:52:19.805Z,1003.75
2019-04-27T02:53:19.630Z,1003.8
2019-04-27T02:54:15.841Z,1003.8
2019-04-27T02:55:14.417Z,1003.79
2019-04-27T02:56:12.961Z,1003.79
2019-04-27T02:57:11.514Z,1003.76
2019-04-27T02:58:12.928Z,1003.75
2019-04-27T02:59:09.491Z,1003.77
2019-04-27T03:00:07.517Z,1003.74
2019-04-27T03:01:06.061Z,1003.76
2019-04-27T03:02:04.618Z,1003.72
2019-04-27T03:03:04.141Z,1003.74
2019-04-27T03:04:02.746Z,1003.74
2019-04-27T03:05:01.485Z,1003.76
2019-04-27T03:06:00.070Z,1003.78
2019-04-27T03:07:00.219Z,1003.73
2019-04-27T03:07:59.514Z,1003.75
2019-04-27T03:08:55.977Z,1003.7
2019-04-27T03:09:54.502Z,1003.74
2019-04-27T03:10:53.565Z,1003.72
2019-04-27T03:11:52.147Z,1003.71
2019-04-27T03:12:50.697Z,1003.71
2019-04-27T03:13:51.882Z,1003.71
2019-04-27T03:14:50.239Z,1003.66
2019-04-27T03:15:46.409Z,1003.68
2019-04-27T03:16:45.116Z,1003.71
2019-04-27T03:17:43.757Z,1003.7
2019-04-27T03:18:42.331Z,1003.66
2019-04-27T03:19:41.094Z,1003.67
2019-04-27T03:20:40.229Z,1003.64
2019-04-27T03:21:39.548Z,1003.64
2019-04-27T03:22:39.468Z,1003.64
2019-04-27T03:23:35.749Z,1003.66
2019-04-27T03:24:34.441Z,1003.62
2019-04-27T03:25:32.991Z,1003.63
2019-04-27T03:26:31.658Z,1003.62
2019-04-27T03:27:30.434Z,1003.62
2019-04-27T03:28:29.783Z,1003.62
2019-04-27T03:29:27.417Z,1003.63
2019-04-27T03:30:25.966Z,1003.61
2019-04-27T03:31:24.518Z,1003.61
2019-04-27T03:32:23.433Z,1003.61
2019-04-27T03:33:22.680Z,1003.6
2019-04-27T03:34:22.090Z,1003.56
2019-04-27T03:35:22.600Z,1003.57
2019-04-27T03:36:21.392Z,1003.58
2019-04-27T03:37:16.365Z,1003.57
2019-04-27T03:38:14.971Z,1003.57
2019-04-27T03:39:13.502Z,1003.61
2019-04-27T03:40:12.082Z,1003.56
2019-04-27T03:41:10.637Z,1003.58
2019-04-27T03:42:10.351Z,1003.55
2019-04-27T03:43:09.345Z,1003.58
2019-04-27T03:44:06.359Z,1003.59
2019-04-27T03:45:04.923Z,1003.56
2019-04-27T03:46:03.702Z,1003.58
2019-04-27T03:47:02.320Z,1003.58
2019-04-27T03:48:01.008Z,1003.56
2019-04-27T03:49:00.064Z,1003.52
2019-04-27T03:50:00.021Z,1003.49
2019-04-27T03:50:59.046Z,1003.52
2019-04-27T03:51:55.358Z,1003.51
2019-04-27T03:52:53.912Z,1003.5
2019-04-27T03:53:52.464Z,1003.48
2019-04-27T03:54:51.035Z,1003.48
2019-04-27T03:55:50.194Z,1003.52
2019-04-27T03:56:50.452Z,1003.5
2019-04-27T03:57:46.883Z,1003.45
2019-04-27T03:58:45.643Z,1003.44
2019-04-27T03:59:44.173Z,1003.37
2019-04-27T04:00:42.801Z,1003.39
2019-04-27T04:01:41.433Z,1003.39
2019-04-27T04:02:40.565Z,1003.38
2019-04-27T04:03:39.267Z,1003.37
2019-04-27T04:04:37.148Z,1003.35
2019-04-27T04:05:35.813Z,1003.42
2019-04-27T04:06:34.381Z,1003.34
2019-04-27T04:07:33.023Z,1003.31
2019-04-27T04:08:31.870Z,1003.29
2019-04-27T04:09:30.426Z,1003.31
2019-04-27T04:10:29.305Z,1003.27
2019-04-27T04:11:27.575Z,1003.28
2019-04-27T04:12:26.127Z,1003.35
2019-04-27T04:13:24.696Z,1003.31
2019-04-27T04:14:23.402Z,1003.35
2019-04-27T04:15:21.937Z,1003.34
2019-04-27T04:16:20.512Z,1003.37
2019-04-27T04:17:20.313Z,1003.41
2019-04-27T04:18:19.605Z,1003.37
2019-04-27T04:19:16.474Z,1003.38
2019-04-27T04:20:15.168Z,1003.4
2019-04-27T04:21:13.724Z,1003.42
2019-04-27T04:22:12.267Z,1003.42
2019-04-27T04:23:10.871Z,1003.42
2019-04-27T04:24:11.825Z,1003.43
2019-04-27T04:25:10.395Z,1003.41
2019-04-27T04:27:50.615Z,1003.41
2019-04-27T04:28:49.790Z,1003.36
2019-04-27T04:29:45.794Z,1003.38
2019-04-27T04:30:44.341Z,1003.4
2019-04-27T04:31:42.913Z,1003.39
2019-04-27T04:32:41.723Z,1003.39
2019-04-27T04:33:40.481Z,1003.36
2019-04-27T04:34:39.869Z,1003.42
2019-04-27T04:35:39.728Z,1003.45
2019-04-27T04:36:36.132Z,1003.44
2019-04-27T04:37:34.792Z,1003.42
2019-04-27T04:38:33.392Z,1003.46
2019-04-27T04:39:32.022Z,1003.41
2019-04-27T04:42:54.804Z,1003.44
2019-04-27T04:43:53.375Z,1003.47
2019-04-27T04:44:51.937Z,1003.49
2019-04-27T04:45:50.509Z,1003.47
2019-04-27T04:46:50.105Z,1003.46
2019-04-27T04:47:49.679Z,1003.51
2019-04-27T04:48:46.341Z,1003.47
2019-04-27T04:49:44.890Z,1003.47
2019-04-27T04:50:43.586Z,1003.54
2019-04-27T04:51:42.125Z,1003.54
2019-04-27T04:52:42.377Z,1003.51
2019-04-27T04:53:40.522Z,1003.52
2019-04-27T04:54:37.991Z,1003.54
2019-04-27T04:55:36.560Z,1003.46
2019-04-27T04:56:35.120Z,1003.51
2019-04-27T04:57:33.726Z,1003.49
2019-04-27T04:58:32.260Z,1003.48
2019-04-27T04:59:30.823Z,1003.54
2019-04-27T05:00:29.885Z,1003.57
2019-04-27T05:01:29.816Z,1003.56
2019-04-27T05:02:26.663Z,1003.59
2019-04-27T05:03:25.302Z,1003.56
2019-04-27T05:04:23.898Z,1003.58
2019-04-27T05:05:22.447Z,1003.58
2019-04-27T05:06:21.140Z,1003.6
2019-04-27T05:07:19.710Z,1003.57
2019-04-27T05:08:19.018Z,1003.57
2019-04-27T05:09:16.796Z,1003.58
2019-04-27T05:10:15.343Z,1003.59
2019-04-27T05:11:13.898Z,1003.58
2019-04-27T05:12:12.446Z,1003.61
2019-04-27T05:13:11.277Z,1003.62
2019-04-27T05:14:09.978Z,1003.59
2019-04-27T05:15:09.091Z,1003.65
2019-04-27T05:16:08.879Z,1003.71
2019-04-27T05:17:05.840Z,1003.66
2019-04-27T05:18:04.401Z,1003.64
2019-04-27T05:19:02.939Z,1003.69
2019-04-27T05:20:01.475Z,1003.6
2019-04-27T05:21:00.164Z,1003.67
2019-04-27T05:21:59.262Z,1003.68
2019-04-27T05:22:58.920Z,1003.63
2019-04-27T05:23:56.033Z,1003.69
2019-04-27T05:24:54.625Z,1003.72
2019-04-27T05:25:53.483Z,1003.7
2019-04-27T05:26:52.063Z,1003.73
2019-04-27T05:27:50.586Z,1003.69
2019-04-27T05:28:49.284Z,1003.72
2019-04-27T05:29:48.800Z,1003.65
2019-04-27T05:30:46.462Z,1003.68
2019-04-27T05:31:45.081Z,1003.67
2019-04-27T05:32:43.751Z,1003.65
2019-04-27T05:33:42.326Z,1003.63
2019-04-27T05:34:41.003Z,1003.65
2019-04-27T05:35:41.002Z,1003.68
2019-04-27T05:36:41.495Z,1003.66
2019-04-27T05:37:38.794Z,1003.63
2019-04-27T05:38:35.625Z,1003.63
2019-04-27T05:39:34.169Z,1003.66
2019-04-27T05:40:32.734Z,1003.67
2019-04-27T05:41:37.369Z,1003.63
2019-04-27T05:42:30.066Z,1003.61
2019-04-27T05:43:30.063Z,1003.61
2019-04-27T05:44:28.608Z,1003.63
2019-04-27T05:45:25.886Z,1003.62
2019-04-27T05:46:24.440Z,1003.58
2019-04-27T05:47:22.991Z,1003.63
2019-04-27T05:48:27.528Z,1003.6
2019-04-27T05:49:20.634Z,1003.64
2019-04-27T05:50:21.913Z,1003.65
2019-04-27T05:51:19.638Z,1003.54
2019-04-27T05:52:16.521Z,1003.56
2019-04-27T05:53:15.052Z,1003.57
2019-04-27T05:54:13.723Z,1003.51
2019-04-27T05:55:12.279Z,1003.55
2019-04-27T05:56:10.875Z,1003.55
2019-04-27T05:57:09.592Z,1003.52
2019-04-27T05:58:09.285Z,1003.51
2019-04-27T05:59:06.659Z,1003.5
2019-04-27T06:00:05.448Z,1003.51
2019-04-27T06:01:04.000Z,1003.49
2019-04-27T06:02:02.545Z,1003.54
2019-04-27T06:03:01.164Z,1003.57
2019-04-27T06:05:41.217Z,1003.48
2019-04-27T06:06:40.051Z,1003.54
2019-04-27T06:07:39.575Z,1003.52
2019-04-27T06:08:39.110Z,1003.46
2019-04-27T06:09:36.177Z,1003.51
2019-04-27T06:10:34.812Z,1003.52
2019-04-27T06:11:33.629Z,1003.51
2019-04-27T06:12:32.169Z,1003.51
2019-04-27T06:13:31.067Z,1003.53
2019-04-27T06:15:53.423Z,1003.5
2019-04-27T06:16:51.997Z,1003.5
2019-04-27T06:17:50.520Z,1003.55
2019-04-27T06:18:49.369Z,1003.53
2019-04-27T06:19:49.250Z,1003.56
2019-04-27T06:20:53.164Z,1003.5
2019-04-27T06:21:44.733Z,1003.58
2019-04-27T06:22:43.280Z,1003.56
2019-04-27T06:23:41.922Z,1003.58
2019-04-27T06:24:40.499Z,1003.54
2019-04-27T06:25:39.455Z,1003.56
2019-04-27T06:26:39.763Z,1003.55
2019-04-27T06:27:36.372Z,1003.54
2019-04-27T06:28:34.975Z,1003.59
2019-04-27T06:29:33.637Z,1003.63
2019-04-27T06:30:32.252Z,1003.53
2019-04-27T06:31:30.877Z,1003.52
2019-04-27T06:32:29.737Z,1003.56
2019-04-27T06:33:33.937Z,1003.56
2019-04-27T06:34:28.716Z,1003.57
2019-04-27T06:35:25.528Z,1003.59
2019-04-27T06:36:24.113Z,1003.62
2019-04-27T06:37:22.687Z,1003.63
2019-04-27T06:38:21.374Z,1003.57
2019-04-27T06:39:20.529Z,1003.55
2019-04-27T06:40:18.958Z,1003.6
2019-04-27T06:41:18.931Z,1003.58
2019-04-27T06:42:18.683Z,1003.6
2019-04-27T06:48:55.737Z,1003.58
2019-04-27T06:51:29.693Z,1003.58
2019-04-27T06:52:29.096Z,1003.53
2019-04-27T06:57:32.347Z,1003.59
2019-04-27T06:58:31.029Z,1003.54
2019-04-27T06:59:29.749Z,1003.56
2019-04-27T07:03:34.958Z,1003.56
2019-04-27T07:04:33.549Z,1003.64
2019-04-27T07:05:32.092Z,1003.6
2019-04-27T07:07:55.461Z,1003.63
2019-04-27T07:10:03.237Z,1003.62
2019-04-27T07:13:02.441Z,1003.66
2019-04-27T07:14:01.103Z,1003.61
2019-04-27T07:16:43.636Z,1003.59
2019-04-27T07:19:28.422Z,1003.68
2019-04-27T07:24:19.413Z,1003.7
2019-04-27T07:25:16.492Z,1003.72
2019-04-27T07:26:15.129Z,1003.71
2019-04-27T07:27:13.811Z,1003.67
2019-04-27T07:28:12.385Z,1003.67
2019-04-27T07:29:11.158Z,1003.69
2019-04-27T07:30:11.719Z,1003.69
2019-04-27T07:31:09.621Z,1003.73
2019-04-27T07:32:08.811Z,1003.71
2019-04-27T07:33:05.861Z,1003.75
2019-04-27T07:34:04.382Z,1003.73
2019-04-27T07:35:03.216Z,1003.71
2019-04-27T07:36:01.768Z,1003.7
2019-04-27T07:37:00.332Z,1003.7
2019-04-27T07:37:58.986Z,1003.77
2019-04-27T07:38:57.456Z,1003.74
2019-04-27T07:39:56.003Z,1003.73
2019-04-27T07:40:54.553Z,1003.7
2019-04-27T07:41:53.374Z,1003.67
2019-04-27T07:42:52.054Z,1003.72
2019-04-27T07:43:50.619Z,1003.65
2019-04-27T07:44:49.986Z,1003.68
2019-04-27T07:45:49.406Z,1003.7
2019-04-27T07:46:46.505Z,1003.71
2019-04-27T07:47:45.051Z,1003.68
2019-04-27T07:48:43.592Z,1003.71
2019-04-27T07:49:42.158Z,1003.71
2019-04-27T07:50:40.686Z,1003.67
2019-04-27T07:51:39.434Z,1003.7
2019-04-27T07:52:40.358Z,1003.74
2019-04-27T07:53:36.655Z,1003.7
2019-04-27T07:54:35.481Z,1003.67
2019-04-27T07:55:34.059Z,1003.63
2019-04-27T07:56:32.633Z,1003.62
2019-04-27T07:57:31.231Z,1003.65
2019-04-27T07:58:29.870Z,1003.63
2019-04-27T07:59:29.475Z,1003.66
2019-04-27T08:00:28.492Z,1003.66
2019-04-27T08:01:25.670Z,1003.63
2019-04-27T08:02:24.249Z,1003.64
2019-04-27T08:03:22.843Z,1003.67
2019-04-27T08:04:21.531Z,1003.65
2019-04-27T08:05:20.060Z,1003.63
2019-04-27T08:06:19.006Z,1003.61
2019-04-27T08:07:17.272Z,1003.6
2019-04-27T08:08:15.859Z,1003.63
2019-04-27T08:09:14.377Z,1003.56
2019-04-27T08:10:12.904Z,1003.59
2019-04-27T08:11:11.508Z,1003.6
2019-04-27T08:12:10.855Z,1003.6
2019-04-27T08:13:09.565Z,1003.56
2019-04-27T08:14:08.673Z,1003.57
2019-04-27T08:15:05.858Z,1003.6
2019-04-27T08:16:04.435Z,1003.62
2019-04-27T08:17:02.995Z,1003.62
2019-04-27T08:18:01.836Z,1003.63
2019-04-27T08:19:00.435Z,1003.67
2019-04-27T08:19:59.538Z,1003.63
2019-04-27T08:20:58.994Z,1003.6
2019-04-27T08:21:56.120Z,1003.63
2019-04-27T08:22:54.661Z,1003.64
2019-04-27T08:23:53.230Z,1003.59
2019-04-27T08:24:51.833Z,1003.61
2019-04-27T08:25:50.365Z,1003.59
2019-04-27T08:26:49.932Z,1003.63
2019-04-27T08:27:49.152Z,1003.62
2019-04-27T08:28:46.100Z,1003.64
2019-04-27T08:29:44.647Z,1003.57
2019-04-27T08:30:43.525Z,1003.59
2019-04-27T08:31:42.057Z,1003.54
2019-04-27T08:32:41.472Z,1003.55
2019-04-27T08:33:39.244Z,1003.49
2019-04-27T08:34:39.454Z,1003.47
2019-04-27T08:35:36.331Z,1003.52
2019-04-27T08:36:34.877Z,1003.46
2019-04-27T08:37:33.421Z,1003.44
2019-04-27T08:38:31.988Z,1003.5
2019-04-27T08:39:30.570Z,1003.47
2019-04-27T08:40:29.412Z,1003.5
2019-04-27T08:41:29.540Z,1003.48
2019-04-27T08:42:26.586Z,1003.46
2019-04-27T08:43:25.378Z,1003.49
2019-04-27T08:44:23.952Z,1003.45
2019-04-27T08:45:22.482Z,1003.46
2019-04-27T08:46:21.074Z,1003.48
2019-04-27T08:47:19.723Z,1003.45
2019-04-27T08:48:33.335Z,1003.46
2019-04-27T08:49:18.487Z,1003.43
2019-04-27T08:50:16.058Z,1003.43
2019-04-27T08:51:14.585Z,1003.46
2019-04-27T08:52:13.143Z,1003.46
2019-04-27T08:53:11.696Z,1003.47
2019-04-27T08:54:10.289Z,1003.41
2019-04-27T08:55:09.514Z,1003.46
2019-04-27T08:56:09.149Z,1003.49
2019-04-27T08:57:06.113Z,1003.48
2019-04-27T08:58:04.665Z,1003.47
2019-04-27T08:59:03.370Z,1003.45
2019-04-27T09:00:01.987Z,1003.41
2019-04-27T09:01:20.713Z,1003.38
2019-04-27T09:02:22.048Z,1003.35
2019-04-27T09:03:20.623Z,1003.36
2019-04-27T09:04:20.002Z,1003.35
2019-04-27T09:05:19.248Z,1003.35
2019-04-27T09:06:16.602Z,1003.35
2019-04-27T09:07:15.243Z,1003.36
2019-04-27T09:08:13.760Z,1003.31
2019-04-27T09:09:12.313Z,1003.35
2019-04-27T09:10:10.894Z,1003.31
2019-04-27T09:11:09.523Z,1003.27
2019-04-27T09:12:09.525Z,1003.33
2019-04-27T09:13:06.624Z,1003.33
2019-04-27T09:14:05.338Z,1003.33
2019-04-27T09:15:03.948Z,1003.37
2019-04-27T09:16:02.533Z,1003.25
2019-04-27T09:17:02.879Z,1003.23
2019-04-27T09:17:59.867Z,1003.22
2019-04-27T09:18:59.731Z,1003.21
2019-04-27T09:19:57.002Z,1003.22
2019-04-27T09:20:55.538Z,1003.17
2019-04-27T09:21:54.064Z,1003.21
2019-04-27T09:22:52.627Z,1003.12
2019-04-27T09:23:51.392Z,1003.13
2019-04-27T09:24:50.012Z,1003.14
2019-04-27T09:25:49.591Z,1003.14
2019-04-27T09:26:47.112Z,1003.14
2019-04-27T09:27:45.978Z,1003.12
2019-04-27T09:28:44.489Z,1003.1
2019-04-27T09:29:43.075Z,1003.07
2019-04-27T09:30:41.654Z,1003.05
2019-04-27T09:31:40.219Z,1003.09
2019-04-27T09:32:40.739Z,1003.02
2019-04-27T09:33:37.634Z,1002.96
2019-04-27T09:34:36.607Z,1002.99
2019-04-27T09:35:35.588Z,1003.01
2019-04-27T09:36:33.657Z,1003.02
2019-04-27T09:37:32.272Z,1003.04
2019-04-27T09:38:30.849Z,1003.01
2019-04-27T09:39:29.479Z,1002.98
2019-04-27T09:40:28.052Z,1002.98
2019-04-27T09:41:26.642Z,1003.07
2019-04-27T09:42:26.808Z,1003.01
2019-04-27T09:43:24.084Z,1003.01
2019-04-27T09:44:22.777Z,1002.98
2019-04-27T09:45:21.367Z,1002.99
2019-04-27T09:46:19.928Z,1002.99
2019-04-27T09:47:18.510Z,1002.97
2019-04-27T09:48:17.616Z,1002.93
2019-04-27T09:49:16.267Z,1002.97
2019-04-27T09:50:16.178Z,1002.96
2019-04-27T09:51:14.003Z,1003.01
2019-04-27T09:52:23.547Z,1003
2019-04-27T09:53:11.342Z,1002.94
2019-04-27T09:54:09.943Z,1002.97
2019-04-27T09:56:50.672Z,1003.03
2019-04-27T09:57:49.787Z,1003
2019-04-27T09:58:49.142Z,1002.97
2019-04-27T10:01:36.032Z,1003.02
2019-04-27T10:03:57.674Z,1003.04
2019-04-27T10:04:56.593Z,1003
2019-04-27T10:05:56.575Z,1002.98
2019-04-27T10:06:53.616Z,1002.93
2019-04-27T10:07:52.286Z,1002.98
2019-04-27T10:08:51.102Z,1002.96
2019-04-27T10:11:31.653Z,1002.96
2019-04-27T10:12:30.262Z,1002.98
2019-04-27T10:13:29.058Z,1002.94
2019-04-27T10:14:27.903Z,1002.97
2019-04-27T10:15:26.728Z,1002.95
2019-04-27T10:16:25.671Z,1002.9
2019-04-27T10:20:58.567Z,1002.97
2019-04-27T10:21:46.726Z,1002.88
2019-04-27T10:22:46.176Z,1002.86
2019-04-27T10:25:24.565Z,1002.89
2019-04-27T10:27:21.724Z,1002.9
2019-04-27T10:28:20.297Z,1002.94
2019-04-27T10:29:18.896Z,1002.89
2019-04-27T10:30:17.608Z,1002.92
2019-04-27T10:32:36.105Z,1002.88
2019-04-27T10:33:33.734Z,1002.82
2019-04-27T10:34:32.644Z,1002.77
2019-04-27T10:35:31.572Z,1002.84
2019-04-27T10:37:27.367Z,1002.78
2019-04-27T10:38:26.129Z,1002.81
2019-04-27T10:39:25.698Z,1002.79
2019-04-27T10:40:23.238Z,1002.76
2019-04-27T10:41:21.986Z,1002.74
2019-04-27T10:42:20.551Z,1002.77
2019-04-27T10:43:19.254Z,1002.82
2019-04-27T10:44:17.849Z,1002.75
2019-04-27T10:45:16.448Z,1002.72
2019-04-27T10:46:15.637Z,1002.81
2019-04-27T10:47:15.678Z,1002.71
2019-04-27T10:48:12.408Z,1002.71
2019-04-27T10:49:10.999Z,1002.69
2019-04-27T10:50:09.646Z,1002.7
2019-04-27T10:51:08.175Z,1002.68
2019-04-27T10:52:06.918Z,1002.62
2019-04-27T10:53:06.889Z,1002.58
2019-04-27T10:54:04.061Z,1002.59
2019-04-27T10:55:02.619Z,1002.56
2019-04-27T10:56:01.456Z,1002.51
2019-04-27T10:57:00.123Z,1002.59
2019-04-27T10:57:58.673Z,1002.49
2019-04-27T10:58:57.549Z,1002.48
2019-04-27T10:59:56.354Z,1002.61
2019-04-27T11:00:56.476Z,1002.44
2019-04-27T11:01:53.285Z,1002.5
2019-04-27T11:02:51.950Z,1002.51
2019-04-27T11:03:50.501Z,1002.47
2019-04-27T11:04:49.125Z,1002.5
2019-04-27T11:05:48.095Z,1002.45
2019-04-27T11:06:46.685Z,1002.5
2019-04-27T11:07:46.325Z,1002.52
2019-04-27T11:08:43.782Z,1002.41
2019-04-27T11:09:42.414Z,1002.51
2019-04-27T11:10:41.108Z,1002.4
2019-04-27T11:11:39.865Z,1002.4
2019-04-27T11:12:38.496Z,1002.38
2019-04-27T11:13:38.295Z,1002.44
2019-04-27T11:14:35.754Z,1002.45
2019-04-27T11:15:34.318Z,1002.37
2019-04-27T11:16:32.868Z,1002.42
2019-04-27T11:17:31.424Z,1002.42
2019-04-27T11:18:29.958Z,1002.39
2019-04-27T11:19:28.645Z,1002.43
2019-04-27T11:20:27.751Z,1002.38
2019-04-27T11:21:26.211Z,1002.46
2019-04-27T11:22:26.012Z,1002.45
2019-04-27T11:23:23.329Z,1002.49
2019-04-27T11:24:21.944Z,1002.56
2019-04-27T11:25:20.603Z,1002.49
2019-04-27T11:26:19.313Z,1002.53
2019-04-27T11:27:17.932Z,1002.48
2019-04-27T11:28:16.563Z,1002.47
2019-04-27T11:29:15.222Z,1002.43
2019-04-27T11:30:15.503Z,1002.41
2019-04-27T11:31:12.381Z,1002.49
2019-04-27T11:32:11.034Z,1002.45
2019-04-27T11:33:09.599Z,1002.51
2019-04-27T11:34:08.178Z,1002.42
2019-04-27T11:35:06.678Z,1002.48
2019-04-27T11:36:06.263Z,1002.48
2019-04-27T11:37:05.435Z,1002.44
2019-04-27T11:38:02.473Z,1002.53
2019-04-27T11:39:01.172Z,1002.47
2019-04-27T11:39:59.863Z,1002.52
2019-04-27T11:40:58.411Z,1002.51
2019-04-27T11:41:57.179Z,1002.5
2019-04-27T11:42:57.299Z,1002.5
2019-04-27T11:43:54.377Z,1002.45
2019-04-27T11:44:55.470Z,1002.52
2019-04-27T11:45:51.788Z,1002.52
2019-04-27T11:46:50.331Z,1002.5
2019-04-27T11:47:49.145Z,1002.51
2019-04-27T11:48:47.751Z,1002.52
2019-04-27T11:49:46.286Z,1002.52
2019-04-27T11:50:45.839Z,1002.44
2019-04-27T11:51:43.417Z,1002.45
2019-04-27T11:52:42.046Z,1002.4
2019-04-27T11:53:40.670Z,1002.46
2019-04-27T11:54:39.507Z,1002.43
2019-04-27T11:55:38.139Z,1002.43
2019-04-27T11:56:36.683Z,1002.47
2019-04-27T11:57:35.714Z,1002.5
2019-04-27T11:58:35.021Z,1002.39
2019-04-27T11:59:32.527Z,1002.44
2019-04-27T12:00:31.121Z,1002.32
2019-04-27T12:01:29.623Z,1002.32
2019-04-27T12:02:28.189Z,1002.25
2019-04-27T12:03:26.785Z,1002.29
2019-04-27T12:04:26.278Z,1002.19
2019-04-27T12:05:26.019Z,1002.18
2019-04-27T12:06:23.043Z,1002.17
2019-04-27T12:07:21.639Z,1002.19
2019-04-27T12:08:20.166Z,1002.09
2019-04-27T12:09:18.769Z,1002.07
2019-04-27T12:10:17.330Z,1002.11
2019-04-27T12:11:16.106Z,1002.1
2019-04-27T12:12:16.915Z,1002.05
2019-04-27T12:13:13.275Z,1002.08
2019-04-27T12:14:11.940Z,1002.04
2019-04-27T12:15:10.550Z,1002.05
2019-04-27T12:16:09.229Z,1002.03
2019-04-27T12:17:07.836Z,1002.06
2019-04-27T12:18:08.788Z,1002.08
2019-04-27T12:19:06.511Z,1002.12
2019-04-27T12:20:03.907Z,1002.07
2019-04-27T12:21:02.471Z,1002.11
2019-04-27T12:22:01.053Z,1002.13
2019-04-27T12:22:59.655Z,1002.08
2019-04-27T12:23:58.258Z,1002.04
2019-04-27T12:24:56.848Z,1001.95
2019-04-27T12:25:56.294Z,1001.95
2019-04-27T12:26:55.544Z,1001.91
2019-04-27T12:27:52.729Z,1001.95
2019-04-27T12:28:51.375Z,1001.96
2019-04-27T12:29:49.967Z,1001.83
2019-04-27T12:30:48.538Z,1001.87
2019-04-27T12:31:48.992Z,1001.89
2019-04-27T12:32:45.903Z,1001.89
2019-04-27T12:33:46.003Z,1001.88
2019-04-27T12:34:43.072Z,1001.79
2019-04-27T12:35:41.674Z,1001.77
2019-04-27T12:36:40.232Z,1001.76
2019-04-27T12:37:38.797Z,1001.8
2019-04-27T12:38:37.494Z,1001.73
2019-04-27T12:39:36.089Z,1001.7
2019-04-27T12:40:36.468Z,1001.64
2019-04-27T12:41:33.532Z,1001.62
2019-04-27T12:42:32.140Z,1001.61
2019-04-27T12:43:30.705Z,1001.55
2019-04-27T12:44:29.352Z,1001.52
2019-04-27T12:45:28.013Z,1001.5